Terminal Aerodrome Forecast
Issued by NWS Mobile, AL

Home | Current Version | Previous Version | Text Only | Print | Product List | Glossary On
Versions: 1 2 3 4 5 6 7 8 9 10 11 12 13 14 15 16 17 18 19 20 21 22 23 24 25 26 27 28 29 30 31 32 33 34 35 36 37 38 39 40 41 42
795
FTUS44 KMOB 240101 AAA
TAFPNS
TAF AMD
KPNS 240101Z 2401/2424 33012G17KT 5SM RA VCTS FEW018 SCT027CB
      OVC035
     FM240130 33008KT 6SM -SHRA VCTS SCT027CB BKN035
     FM240200 VRB05KT P6SM SCT025 SCT250
      TEMPO 2402/2404 6SM -SHRA BKN250
     FM241500 VRB05KT P6SM VCSH BKN030 BKN250
     FM241800 18007KT P6SM VCSH SCT030 PROB30 2418/2424 4SM TSRA
      BKN025CB=

USA.gov is the U.S. government's official web portal to all federal, state and local government web resources and services.